sensor_id;sensor_type;location;lat;lon;timestamp;P1;durP1;ratioP1;P2;durP2;ratioP2
7929;SDS011;4010;42.698;23.124;2023-05-16T00:01:55;24.33;;;17.83;;
7929;SDS011;4010;42.698;23.124;2023-05-16T00:04:23;22.60;;;16.77;;
7929;SDS011;4010;42.698;23.124;2023-05-16T00:06:50;19.00;;;16.47;;
7929;SDS011;4010;42.698;23.124;2023-05-16T00:09:17;21.60;;;16.33;;
7929;SDS011;4010;42.698;23.124;2023-05-16T00:11:44;21.90;;;17.13;;
7929;SDS011;4010;42.698;23.124;2023-05-16T00:14:12;26.80;;;16.57;;
7929;SDS011;4010;42.698;23.124;2023-05-16T00:16:39;19.03;;;16.67;;
7929;SDS011;4010;42.698;23.124;2023-05-16T00:19:05;20.27;;;15.10;;
7929;SDS011;4010;42.698;23.124;2023-05-16T00:21:34;23.93;;;16.70;;
7929;SDS011;4010;42.698;23.124;2023-05-16T00:24:00;19.83;;;16.10;;
7929;SDS011;4010;42.698;23.124;2023-05-16T00:26:28;21.83;;;17.30;;
7929;SDS011;4010;42.698;23.124;2023-05-16T00:28:54;19.67;;;15.83;;
7929;SDS011;4010;42.698;23.124;2023-05-16T00:31:21;21.03;;;15.83;;
7929;SDS011;4010;42.698;23.124;2023-05-16T00:33:48;22.80;;;16.20;;
7929;SDS011;4010;42.698;23.124;2023-05-16T00:36:15;22.40;;;16.67;;
7929;SDS011;4010;42.698;23.124;2023-05-16T00:38:43;19.37;;;15.30;;
7929;SDS011;4010;42.698;23.124;2023-05-16T00:41:10;18.30;;;14.50;;
7929;SDS011;4010;42.698;23.124;2023-05-16T00:43:36;20.40;;;16.03;;
7929;SDS011;4010;42.698;23.124;2023-05-16T00:46:03;21.53;;;15.77;;
7929;SDS011;4010;42.698;23.124;2023-05-16T00:48:30;22.57;;;17.13;;
7929;SDS011;4010;42.698;23.124;2023-05-16T00:50:57;21.43;;;15.90;;
7929;SDS011;4010;42.698;23.124;2023-05-16T00:53:25;22.20;;;17.40;;
7929;SDS011;4010;42.698;23.124;2023-05-16T00:55:53;20.33;;;16.57;;
7929;SDS011;4010;42.698;23.124;2023-05-16T00:58:21;23.93;;;15.63;;
7929;SDS011;4010;42.698;23.124;2023-05-16T01:00:49;22.73;;;15.87;;
7929;SDS011;4010;42.698;23.124;2023-05-16T01:03:16;20.50;;;16.40;;
7929;SDS011;4010;42.698;23.124;2023-05-16T01:05:43;20.70;;;15.17;;
7929;SDS011;4010;42.698;23.124;2023-05-16T01:08:11;21.50;;;16.43;;
7929;SDS011;4010;42.698;23.124;2023-05-16T01:10:38;19.50;;;15.50;;
7929;SDS011;4010;42.698;23.124;2023-05-16T01:13:17;19.90;;;15.73;;
7929;SDS011;4010;42.698;23.124;2023-05-16T01:15:54;21.40;;;15.93;;
7929;SDS011;4010;42.698;23.124;2023-05-16T01:18:28;20.30;;;15.70;;
7929;SDS011;4010;42.698;23.124;2023-05-16T01:21:00;19.27;;;15.23;;
7929;SDS011;4010;42.698;23.124;2023-05-16T01:23:33;21.27;;;15.53;;
7929;SDS011;4010;42.698;23.124;2023-05-16T01:26:13;19.03;;;15.10;;
7929;SDS011;4010;42.698;23.124;2023-05-16T01:28:42;22.23;;;15.17;;
7929;SDS011;4010;42.698;23.124;2023-05-16T01:31:10;19.63;;;15.53;;
7929;SDS011;4010;42.698;23.124;2023-05-16T01:33:37;18.70;;;16.07;;
7929;SDS011;4010;42.698;23.124;2023-05-16T01:36:05;20.03;;;14.93;;
7929;SDS011;4010;42.698;23.124;2023-05-16T01:38:38;22.57;;;15.43;;
7929;SDS011;4010;42.698;23.124;2023-05-16T01:41:12;20.07;;;15.07;;
7929;SDS011;4010;42.698;23.124;2023-05-16T01:43:47;19.63;;;15.23;;
7929;SDS011;4010;42.698;23.124;2023-05-16T01:46:18;19.10;;;15.67;;
7929;SDS011;4010;42.698;23.124;2023-05-16T01:48:50;19.83;;;15.57;;
7929;SDS011;4010;42.698;23.124;2023-05-16T01:51:19;21.60;;;16.40;;
7929;SDS011;4010;42.698;23.124;2023-05-16T01:53:48;24.57;;;16.83;;
7929;SDS011;4010;42.698;23.124;2023-05-16T01:56:17;18.27;;;14.50;;
7929;SDS011;4010;42.698;23.124;2023-05-16T01:58:45;20.60;;;15.13;;
7929;SDS011;4010;42.698;23.124;2023-05-16T02:01:15;20.40;;;16.10;;
7929;SDS011;4010;42.698;23.124;2023-05-16T02:03:41;20.70;;;15.53;;
7929;SDS011;4010;42.698;23.124;2023-05-16T02:06:08;19.60;;;17.23;;
7929;SDS011;4010;42.698;23.124;2023-05-16T02:08:35;21.70;;;17.17;;
7929;SDS011;4010;42.698;23.124;2023-05-16T02:11:01;24.60;;;17.97;;
7929;SDS011;4010;42.698;23.124;2023-05-16T02:13:29;23.20;;;16.10;;
7929;SDS011;4010;42.698;23.124;2023-05-16T02:15:56;21.47;;;16.17;;
7929;SDS011;4010;42.698;23.124;2023-05-16T02:18:23;19.87;;;15.43;;
7929;SDS011;4010;42.698;23.124;2023-05-16T02:20:50;22.50;;;16.17;;
7929;SDS011;4010;42.698;23.124;2023-05-16T02:23:17;20.60;;;15.93;;
7929;SDS011;4010;42.698;23.124;2023-05-16T02:25:44;22.03;;;16.97;;
7929;SDS011;4010;42.698;23.124;2023-05-16T02:28:11;20.27;;;16.80;;
7929;SDS011;4010;42.698;23.124;2023-05-16T02:30:39;20.20;;;14.80;;
7929;SDS011;4010;42.698;23.124;2023-05-16T02:33:06;18.40;;;14.90;;
7929;SDS011;4010;42.698;23.124;2023-05-16T02:35:32;18.23;;;15.10;;
7929;SDS011;4010;42.698;23.124;2023-05-16T02:37:59;22.20;;;16.17;;
7929;SDS011;4010;42.698;23.124;2023-05-16T02:40:26;22.23;;;16.80;;
7929;SDS011;4010;42.698;23.124;2023-05-16T02:42:52;22.23;;;16.00;;
7929;SDS011;4010;42.698;23.124;2023-05-16T02:45:19;24.80;;;18.03;;
7929;SDS011;4010;42.698;23.124;2023-05-16T02:47:47;22.33;;;17.23;;
7929;SDS011;4010;42.698;23.124;2023-05-16T02:50:14;20.10;;;16.77;;
7929;SDS011;4010;42.698;23.124;2023-05-16T02:52:40;22.80;;;16.87;;
7929;SDS011;4010;42.698;23.124;2023-05-16T02:55:07;24.63;;;17.63;;
7929;SDS011;4010;42.698;23.124;2023-05-16T02:57:36;22.30;;;17.83;;
7929;SDS011;4010;42.698;23.124;2023-05-16T03:00:03;21.43;;;17.67;;
7929;SDS011;4010;42.698;23.124;2023-05-16T03:02:31;24.60;;;19.30;;
7929;SDS011;4010;42.698;23.124;2023-05-16T03:04:59;22.03;;;17.70;;
7929;SDS011;4010;42.698;23.124;2023-05-16T03:07:25;24.60;;;17.83;;
7929;SDS011;4010;42.698;23.124;2023-05-16T03:09:52;23.50;;;17.30;;
7929;SDS011;4010;42.698;23.124;2023-05-16T03:12:19;22.97;;;18.77;;
7929;SDS011;4010;42.698;23.124;2023-05-16T03:14:45;21.27;;;17.57;;
7929;SDS011;4010;42.698;23.124;2023-05-16T03:17:12;22.23;;;17.97;;
7929;SDS011;4010;42.698;23.124;2023-05-16T03:19:39;22.27;;;18.27;;
7929;SDS011;4010;42.698;23.124;2023-05-16T03:22:07;23.47;;;18.43;;
7929;SDS011;4010;42.698;23.124;2023-05-16T03:24:33;19.00;;;16.73;;
7929;SDS011;4010;42.698;23.124;2023-05-16T03:27:00;18.87;;;16.57;;
7929;SDS011;4010;42.698;23.124;2023-05-16T03:29:27;24.70;;;17.93;;
7929;SDS011;4010;42.698;23.124;2023-05-16T03:31:54;21.47;;;17.77;;
7929;SDS011;4010;42.698;23.124;2023-05-16T03:34:21;22.97;;;18.93;;
7929;SDS011;4010;42.698;23.124;2023-05-16T03:36:48;22.23;;;18.33;;
7929;SDS011;4010;42.698;23.124;2023-05-16T03:39:17;23.63;;;20.00;;
7929;SDS011;4010;42.698;23.124;2023-05-16T03:41:44;24.70;;;18.70;;
7929;SDS011;4010;42.698;23.124;2023-05-16T03:44:10;22.87;;;18.93;;
7929;SDS011;4010;42.698;23.124;2023-05-16T03:46:37;22.43;;;18.70;;
7929;SDS011;4010;42.698;23.124;2023-05-16T03:49:04;22.33;;;18.13;;
7929;SDS011;4010;42.698;23.124;2023-05-16T03:51:30;24.40;;;18.10;;
7929;SDS011;4010;42.698;23.124;2023-05-16T03:53:57;19.40;;;17.03;;
7929;SDS011;4010;42.698;23.124;2023-05-16T03:56:25;22.40;;;17.87;;
7929;SDS011;4010;42.698;23.124;2023-05-16T03:58:53;20.27;;;16.57;;
7929;SDS011;4010;42.698;23.124;2023-05-16T04:01:19;22.00;;;16.47;;
7929;SDS011;4010;42.698;23.124;2023-05-16T04:03:46;20.80;;;16.87;;
7929;SDS011;4010;42.698;23.124;2023-05-16T04:06:14;20.60;;;16.87;;
7929;SDS011;4010;42.698;23.124;2023-05-16T04:08:41;21.70;;;16.67;;
7929;SDS011;4010;42.698;23.124;2023-05-16T04:11:17;23.80;;;19.33;;
7929;SDS011;4010;42.698;23.124;2023-05-16T04:13:55;20.30;;;18.13;;
7929;SDS011;4010;42.698;23.124;2023-05-16T04:16:22;22.30;;;18.07;;
7929;SDS011;4010;42.698;23.124;2023-05-16T04:18:48;23.33;;;18.83;;
7929;SDS011;4010;42.698;23.124;2023-05-16T04:21:16;20.60;;;18.40;;
7929;SDS011;4010;42.698;23.124;2023-05-16T04:23:42;22.17;;;19.77;;
7929;SDS011;4010;42.698;23.124;2023-05-16T04:26:09;23.90;;;19.67;;
7929;SDS011;4010;42.698;23.124;2023-05-16T04:28:36;20.60;;;17.17;;
7929;SDS011;4010;42.698;23.124;2023-05-16T04:31:05;20.40;;;17.00;;
7929;SDS011;4010;42.698;23.124;2023-05-16T04:33:32;20.60;;;18.07;;
7929;SDS011;4010;42.698;23.124;2023-05-16T04:35:58;21.07;;;18.70;;
7929;SDS011;4010;42.698;23.124;2023-05-16T04:38:25;21.00;;;18.80;;
7929;SDS011;4010;42.698;23.124;2023-05-16T04:40:52;25.00;;;20.77;;
7929;SDS011;4010;42.698;23.124;2023-05-16T04:43:19;24.87;;;20.60;;
7929;SDS011;4010;42.698;23.124;2023-05-16T04:45:46;25.43;;;20.83;;
7929;SDS011;4010;42.698;23.124;2023-05-16T04:48:15;22.70;;;20.30;;
7929;SDS011;4010;42.698;23.124;2023-05-16T04:50:41;25.70;;;21.03;;
7929;SDS011;4010;42.698;23.124;2023-05-16T04:53:08;25.30;;;20.13;;
7929;SDS011;4010;42.698;23.124;2023-05-16T04:55:35;20.90;;;18.50;;
7929;SDS011;4010;42.698;23.124;2023-05-16T04:58:01;20.00;;;17.87;;
7929;SDS011;4010;42.698;23.124;2023-05-16T05:00:28;23.63;;;20.67;;
7929;SDS011;4010;42.698;23.124;2023-05-16T05:02:55;24.73;;;22.07;;
7929;SDS011;4010;42.698;23.124;2023-05-16T05:05:23;29.53;;;25.10;;
7929;SDS011;4010;42.698;23.124;2023-05-16T05:07:50;29.20;;;25.40;;
7929;SDS011;4010;42.698;23.124;2023-05-16T05:10:17;23.93;;;20.57;;
7929;SDS011;4010;42.698;23.124;2023-05-16T05:12:44;23.77;;;19.70;;
7929;SDS011;4010;42.698;23.124;2023-05-16T05:15:11;23.13;;;20.43;;
7929;SDS011;4010;42.698;23.124;2023-05-16T05:17:37;24.00;;;19.80;;
7929;SDS011;4010;42.698;23.124;2023-05-16T05:20:06;22.77;;;20.27;;
7929;SDS011;4010;42.698;23.124;2023-05-16T05:22:35;21.33;;;19.07;;
7929;SDS011;4010;42.698;23.124;2023-05-16T05:25:02;22.93;;;20.10;;
7929;SDS011;4010;42.698;23.124;2023-05-16T05:27:29;23.03;;;20.63;;
7929;SDS011;4010;42.698;23.124;2023-05-16T05:29:56;23.37;;;20.87;;
7929;SDS011;4010;42.698;23.124;2023-05-16T05:32:22;28.13;;;23.93;;
7929;SDS011;4010;42.698;23.124;2023-05-16T05:34:49;24.00;;;21.60;;
7929;SDS011;4010;42.698;23.124;2023-05-16T05:37:16;26.60;;;23.60;;
7929;SDS011;4010;42.698;23.124;2023-05-16T05:39:44;36.87;;;30.87;;
7929;SDS011;4010;42.698;23.124;2023-05-16T05:42:11;29.50;;;26.37;;
7929;SDS011;4010;42.698;23.124;2023-05-16T05:44:38;31.63;;;27.37;;
7929;SDS011;4010;42.698;23.124;2023-05-16T05:47:04;29.27;;;25.60;;
7929;SDS011;4010;42.698;23.124;2023-05-16T05:49:32;27.60;;;24.80;;
7929;SDS011;4010;42.698;23.124;2023-05-16T05:51:59;25.60;;;22.97;;
7929;SDS011;4010;42.698;23.124;2023-05-16T05:54:26;22.83;;;20.53;;
7929;SDS011;4010;42.698;23.124;2023-05-16T05:56:55;21.63;;;19.43;;
7929;SDS011;4010;42.698;23.124;2023-05-16T05:59:22;23.23;;;18.73;;
7929;SDS011;4010;42.698;23.124;2023-05-16T06:01:49;23.20;;;20.90;;
7929;SDS011;4010;42.698;23.124;2023-05-16T06:04:16;22.93;;;20.50;;
7929;SDS011;4010;42.698;23.124;2023-05-16T06:06:43;24.40;;;22.00;;
7929;SDS011;4010;42.698;23.124;2023-05-16T06:09:10;25.53;;;21.87;;
7929;SDS011;4010;42.698;23.124;2023-05-16T06:11:37;23.60;;;20.77;;
7929;SDS011;4010;42.698;23.124;2023-05-16T06:14:06;22.13;;;19.80;;
7929;SDS011;4010;42.698;23.124;2023-05-16T06:16:32;35.83;;;30.00;;
7929;SDS011;4010;42.698;23.124;2023-05-16T06:18:59;21.77;;;19.47;;
7929;SDS011;4010;42.698;23.124;2023-05-16T06:21:26;27.57;;;24.70;;
7929;SDS011;4010;42.698;23.124;2023-05-16T06:23:53;23.00;;;20.70;;
7929;SDS011;4010;42.698;23.124;2023-05-16T06:26:19;26.33;;;21.63;;
7929;SDS011;4010;42.698;23.124;2023-05-16T06:28:46;24.27;;;21.00;;
7929;SDS011;4010;42.698;23.124;2023-05-16T06:31:14;22.93;;;20.63;;
7929;SDS011;4010;42.698;23.124;2023-05-16T06:33:41;22.50;;;19.50;;
7929;SDS011;4010;42.698;23.124;2023-05-16T06:36:08;20.20;;;18.10;;
7929;SDS011;4010;42.698;23.124;2023-05-16T06:38:34;24.20;;;19.90;;
7929;SDS011;4010;42.698;23.124;2023-05-16T06:41:01;22.57;;;20.20;;
7929;SDS011;4010;42.698;23.124;2023-05-16T06:43:28;23.07;;;20.67;;
7929;SDS011;4010;42.698;23.124;2023-05-16T06:45:54;30.17;;;26.93;;
7929;SDS011;4010;42.698;23.124;2023-05-16T06:48:22;40.30;;;34.13;;
7929;SDS011;4010;42.698;23.124;2023-05-16T06:50:49;31.23;;;22.70;;
7929;SDS011;4010;42.698;23.124;2023-05-16T06:53:16;30.93;;;27.60;;
7929;SDS011;4010;42.698;23.124;2023-05-16T06:55:43;30.33;;;25.07;;
7929;SDS011;4010;42.698;23.124;2023-05-16T06:58:09;29.83;;;25.87;;
7929;SDS011;4010;42.698;23.124;2023-05-16T07:00:36;28.37;;;25.47;;
7929;SDS011;4010;42.698;23.124;2023-05-16T07:03:03;28.43;;;24.33;;
7929;SDS011;4010;42.698;23.124;2023-05-16T07:05:31;27.40;;;23.03;;
7929;SDS011;4010;42.698;23.124;2023-05-16T07:07:58;26.50;;;23.33;;
7929;SDS011;4010;42.698;23.124;2023-05-16T07:10:25;37.40;;;32.50;;
7929;SDS011;4010;42.698;23.124;2023-05-16T07:12:52;28.37;;;24.53;;
7929;SDS011;4010;42.698;23.124;2023-05-16T07:15:19;22.73;;;20.57;;
7929;SDS011;4010;42.698;23.124;2023-05-16T07:17:46;22.83;;;20.47;;
7929;SDS011;4010;42.698;23.124;2023-05-16T07:20:12;21.00;;;18.40;;
7929;SDS011;4010;42.698;23.124;2023-05-16T07:22:41;21.90;;;18.87;;
7929;SDS011;4010;42.698;23.124;2023-05-16T07:25:07;18.97;;;17.00;;
7929;SDS011;4010;42.698;23.124;2023-05-16T07:27:36;17.57;;;15.80;;
7929;SDS011;4010;42.698;23.124;2023-05-16T07:30:05;16.20;;;14.60;;
7929;SDS011;4010;42.698;23.124;2023-05-16T07:32:33;16.57;;;14.53;;
7929;SDS011;4010;42.698;23.124;2023-05-16T07:34:59;18.23;;;14.63;;
7929;SDS011;4010;42.698;23.124;2023-05-16T07:37:26;14.63;;;13.17;;
7929;SDS011;4010;42.698;23.124;2023-05-16T07:39:54;15.53;;;12.87;;
7929;SDS011;4010;42.698;23.124;2023-05-16T07:42:21;15.13;;;13.00;;
7929;SDS011;4010;42.698;23.124;2023-05-16T07:44:48;16.30;;;14.50;;
7929;SDS011;4010;42.698;23.124;2023-05-16T07:47:15;18.33;;;13.10;;
7929;SDS011;4010;42.698;23.124;2023-05-16T07:49:41;14.13;;;12.07;;
7929;SDS011;4010;42.698;23.124;2023-05-16T07:52:08;14.77;;;11.97;;
7929;SDS011;4010;42.698;23.124;2023-05-16T07:54:35;16.90;;;12.67;;
7929;SDS011;4010;42.698;23.124;2023-05-16T07:57:03;16.23;;;12.57;;
7929;SDS011;4010;42.698;23.124;2023-05-16T07:59:30;13.53;;;12.13;;
7929;SDS011;4010;42.698;23.124;2023-05-16T08:01:56;13.93;;;12.53;;
7929;SDS011;4010;42.698;23.124;2023-05-16T08:04:23;13.07;;;11.80;;
7929;SDS011;4010;42.698;23.124;2023-05-16T08:06:50;15.10;;;11.43;;
7929;SDS011;4010;42.698;23.124;2023-05-16T08:09:17;12.93;;;11.73;;
7929;SDS011;4010;42.698;23.124;2023-05-16T08:11:43;12.93;;;11.53;;
7929;SDS011;4010;42.698;23.124;2023-05-16T08:14:12;13.13;;;11.30;;
7929;SDS011;4010;42.698;23.124;2023-05-16T08:16:38;14.23;;;11.20;;
7929;SDS011;4010;42.698;23.124;2023-05-16T08:19:05;12.57;;;10.20;;
7929;SDS011;4010;42.698;23.124;2023-05-16T08:21:32;12.23;;;11.03;;
7929;SDS011;4010;42.698;23.124;2023-05-16T08:23:59;11.60;;;10.40;;
7929;SDS011;4010;42.698;23.124;2023-05-16T08:26:26;16.57;;;9.70;;
7929;SDS011;4010;42.698;23.124;2023-05-16T08:28:52;11.37;;;10.20;;
7929;SDS011;4010;42.698;23.124;2023-05-16T08:31:20;11.27;;;10.17;;
7929;SDS011;4010;42.698;23.124;2023-05-16T08:33:47;13.87;;;9.93;;
7929;SDS011;4010;42.698;23.124;2023-05-16T08:36:13;12.10;;;9.63;;
7929;SDS011;4010;42.698;23.124;2023-05-16T08:38:43;13.37;;;8.93;;
7929;SDS011;4010;42.698;23.124;2023-05-16T08:41:10;8.77;;;7.80;;
7929;SDS011;4010;42.698;23.124;2023-05-16T08:43:37;9.00;;;8.10;;
7929;SDS011;4010;42.698;23.124;2023-05-16T08:46:05;11.80;;;8.37;;
7929;SDS011;4010;42.698;23.124;2023-05-16T08:48:33;10.40;;;8.70;;
7929;SDS011;4010;42.698;23.124;2023-05-16T08:51:04;9.07;;;8.17;;
7929;SDS011;4010;42.698;23.124;2023-05-16T08:53:34;10.80;;;8.60;;
7929;SDS011;4010;42.698;23.124;2023-05-16T08:56:06;12.27;;;8.17;;
7929;SDS011;4010;42.698;23.124;2023-05-16T08:58:33;9.23;;;7.90;;
7929;SDS011;4010;42.698;23.124;2023-05-16T09:01:01;9.30;;;7.13;;
7929;SDS011;4010;42.698;23.124;2023-05-16T09:03:34;11.93;;;7.90;;
7929;SDS011;4010;42.698;23.124;2023-05-16T09:06:02;8.80;;;7.90;;
7929;SDS011;4010;42.698;23.124;2023-05-16T09:08:30;13.23;;;8.47;;
7929;SDS011;4010;42.698;23.124;2023-05-16T09:10:57;11.93;;;8.10;;
7929;SDS011;4010;42.698;23.124;2023-05-16T09:13:24;8.07;;;7.27;;
7929;SDS011;4010;42.698;23.124;2023-05-16T09:18:41;12.38;;;8.35;;
7929;SDS011;4010;42.698;23.124;2023-05-16T09:21:10;12.23;;;7.50;;
7929;SDS011;4010;42.698;23.124;2023-05-16T09:23:37;11.97;;;7.70;;
7929;SDS011;4010;42.698;23.124;2023-05-16T09:26:04;8.67;;;7.43;;
7929;SDS011;4010;42.698;23.124;2023-05-16T09:28:32;10.10;;;8.90;;
7929;SDS011;4010;42.698;23.124;2023-05-16T09:30:59;12.07;;;8.17;;
7929;SDS011;4010;42.698;23.124;2023-05-16T09:33:26;11.37;;;7.70;;
7929;SDS011;4010;42.698;23.124;2023-05-16T09:35:55;9.47;;;8.07;;
7929;SDS011;4010;42.698;23.124;2023-05-16T09:38:23;12.03;;;8.30;;
7929;SDS011;4010;42.698;23.124;2023-05-16T09:40:51;12.07;;;7.63;;
7929;SDS011;4010;42.698;23.124;2023-05-16T09:43:19;18.47;;;8.47;;
7929;SDS011;4010;42.698;23.124;2023-05-16T09:45:48;9.00;;;7.80;;
7929;SDS011;4010;42.698;23.124;2023-05-16T09:48:15;10.30;;;7.47;;
7929;SDS011;4010;42.698;23.124;2023-05-16T09:50:45;8.43;;;7.47;;
7929;SDS011;4010;42.698;23.124;2023-05-16T09:53:16;10.93;;;7.90;;
7929;SDS011;4010;42.698;23.124;2023-05-16T09:55:43;10.50;;;8.17;;
7929;SDS011;4010;42.698;23.124;2023-05-16T09:58:10;12.87;;;7.47;;
7929;SDS011;4010;42.698;23.124;2023-05-16T10:00:36;8.37;;;7.50;;
7929;SDS011;4010;42.698;23.124;2023-05-16T10:03:05;10.10;;;7.57;;
7929;SDS011;4010;42.698;23.124;2023-05-16T10:05:33;10.97;;;7.27;;
7929;SDS011;4010;42.698;23.124;2023-05-16T10:08:01;10.63;;;8.33;;
7929;SDS011;4010;42.698;23.124;2023-05-16T10:10:30;11.90;;;8.37;;
7929;SDS011;4010;42.698;23.124;2023-05-16T10:13:01;11.57;;;8.17;;
7929;SDS011;4010;42.698;23.124;2023-05-16T10:15:31;9.07;;;7.63;;
7929;SDS011;4010;42.698;23.124;2023-05-16T10:17:58;12.17;;;7.93;;
7929;SDS011;4010;42.698;23.124;2023-05-16T10:20:25;11.37;;;7.37;;
7929;SDS011;4010;42.698;23.124;2023-05-16T10:22:52;9.00;;;7.37;;
7929;SDS011;4010;42.698;23.124;2023-05-16T10:25:23;12.53;;;7.23;;
7929;SDS011;4010;42.698;23.124;2023-05-16T10:27:55;9.20;;;7.10;;
7929;SDS011;4010;42.698;23.124;2023-05-16T10:30:23;11.27;;;7.10;;
7929;SDS011;4010;42.698;23.124;2023-05-16T10:32:51;9.77;;;6.90;;
7929;SDS011;4010;42.698;23.124;2023-05-16T10:35:18;9.73;;;7.27;;
7929;SDS011;4010;42.698;23.124;2023-05-16T10:37:45;11.23;;;7.83;;
7929;SDS011;4010;42.698;23.124;2023-05-16T10:40:14;8.53;;;7.50;;
7929;SDS011;4010;42.698;23.124;2023-05-16T10:42:43;8.47;;;6.93;;
7929;SDS011;4010;42.698;23.124;2023-05-16T10:45:21;10.43;;;8.33;;
7929;SDS011;4010;42.698;23.124;2023-05-16T10:47:52;10.23;;;7.27;;
7929;SDS011;4010;42.698;23.124;2023-05-16T10:50:35;14.30;;;8.07;;
7929;SDS011;4010;42.698;23.124;2023-05-16T10:53:17;9.47;;;8.03;;
7929;SDS011;4010;42.698;23.124;2023-05-16T10:55:48;9.93;;;7.53;;
7929;SDS011;4010;42.698;23.124;2023-05-16T10:58:22;18.20;;;7.60;;
7929;SDS011;4010;42.698;23.124;2023-05-16T11:06:48;10.00;;;6.97;;
7929;SDS011;4010;42.698;23.124;2023-05-16T11:09:17;8.63;;;7.40;;
7929;SDS011;4010;42.698;23.124;2023-05-16T11:11:53;8.43;;;7.63;;
7929;SDS011;4010;42.698;23.124;2023-05-16T11:14:22;9.73;;;7.57;;
7929;SDS011;4010;42.698;23.124;2023-05-16T11:16:52;10.80;;;8.40;;
7929;SDS011;4010;42.698;23.124;2023-05-16T11:19:29;12.33;;;8.00;;
7929;SDS011;4010;42.698;23.124;2023-05-16T11:22:12;10.87;;;8.60;;
7929;SDS011;4010;42.698;23.124;2023-05-16T11:24:48;8.90;;;8.13;;
7929;SDS011;4010;42.698;23.124;2023-05-16T11:27:21;9.20;;;8.13;;
7929;SDS011;4010;42.698;23.124;2023-05-16T11:29:49;10.33;;;8.00;;
7929;SDS011;4010;42.698;23.124;2023-05-16T11:32:19;17.47;;;8.53;;
7929;SDS011;4010;42.698;23.124;2023-05-16T11:34:47;9.97;;;8.13;;
7929;SDS011;4010;42.698;23.124;2023-05-16T11:37:14;11.77;;;8.23;;
7929;SDS011;4010;42.698;23.124;2023-05-16T11:39:41;12.00;;;10.03;;
7929;SDS011;4010;42.698;23.124;2023-05-16T11:42:08;12.80;;;8.60;;
7929;SDS011;4010;42.698;23.124;2023-05-16T11:44:34;9.97;;;8.63;;
7929;SDS011;4010;42.698;23.124;2023-05-16T11:47:01;11.90;;;9.73;;
7929;SDS011;4010;42.698;23.124;2023-05-16T11:49:30;13.03;;;9.90;;
7929;SDS011;4010;42.698;23.124;2023-05-16T11:51:56;14.33;;;10.27;;
7929;SDS011;4010;42.698;23.124;2023-05-16T11:54:23;15.10;;;9.17;;
7929;SDS011;4010;42.698;23.124;2023-05-16T11:56:50;10.60;;;9.00;;
7929;SDS011;4010;42.698;23.124;2023-05-16T11:59:18;14.50;;;9.03;;
7929;SDS011;4010;42.698;23.124;2023-05-16T12:01:45;13.70;;;9.23;;
7929;SDS011;4010;42.698;23.124;2023-05-16T12:04:13;13.53;;;8.90;;
7929;SDS011;4010;42.698;23.124;2023-05-16T12:06:42;11.20;;;8.27;;
7929;SDS011;4010;42.698;23.124;2023-05-16T12:09:11;13.00;;;8.60;;
7929;SDS011;4010;42.698;23.124;2023-05-16T12:11:39;10.00;;;8.23;;
7929;SDS011;4010;42.698;23.124;2023-05-16T12:14:07;9.80;;;8.20;;
7929;SDS011;4010;42.698;23.124;2023-05-16T12:16:35;9.77;;;8.13;;
7929;SDS011;4010;42.698;23.124;2023-05-16T12:19:03;11.23;;;8.77;;
7929;SDS011;4010;42.698;23.124;2023-05-16T12:21:31;10.07;;;8.80;;
7929;SDS011;4010;42.698;23.124;2023-05-16T12:23:59;10.00;;;8.90;;
7929;SDS011;4010;42.698;23.124;2023-05-16T12:26:26;11.17;;;9.73;;
7929;SDS011;4010;42.698;23.124;2023-05-16T12:28:56;13.63;;;8.33;;
7929;SDS011;4010;42.698;23.124;2023-05-16T12:31:24;10.53;;;8.40;;
7929;SDS011;4010;42.698;23.124;2023-05-16T12:33:52;13.13;;;8.87;;
7929;SDS011;4010;42.698;23.124;2023-05-16T12:36:19;13.63;;;8.47;;
7929;SDS011;4010;42.698;23.124;2023-05-16T12:38:46;14.00;;;10.47;;
7929;SDS011;4010;42.698;23.124;2023-05-16T12:41:17;16.83;;;9.63;;
7929;SDS011;4010;42.698;23.124;2023-05-16T12:43:45;16.90;;;10.10;;
7929;SDS011;4010;42.698;23.124;2023-05-16T12:46:12;10.40;;;9.37;;
7929;SDS011;4010;42.698;23.124;2023-05-16T12:48:39;11.43;;;10.33;;
7929;SDS011;4010;42.698;23.124;2023-05-16T12:51:09;17.87;;;10.60;;
7929;SDS011;4010;42.698;23.124;2023-05-16T12:53:40;10.10;;;9.07;;
7929;SDS011;4010;42.698;23.124;2023-05-16T12:56:08;10.60;;;9.53;;
7929;SDS011;4010;42.698;23.124;2023-05-16T12:58:36;11.17;;;9.93;;
7929;SDS011;4010;42.698;23.124;2023-05-16T13:01:03;10.40;;;9.43;;
7929;SDS011;4010;42.698;23.124;2023-05-16T13:03:29;14.77;;;10.50;;
7929;SDS011;4010;42.698;23.124;2023-05-16T13:05:56;14.77;;;10.00;;
7929;SDS011;4010;42.698;23.124;2023-05-16T13:08:23;13.03;;;9.73;;
7929;SDS011;4010;42.698;23.124;2023-05-16T13:10:50;11.20;;;10.10;;
7929;SDS011;4010;42.698;23.124;2023-05-16T13:13:17;13.57;;;9.63;;
7929;SDS011;4010;42.698;23.124;2023-05-16T13:15:45;13.73;;;10.50;;
7929;SDS011;4010;42.698;23.124;2023-05-16T13:18:12;15.50;;;10.90;;
7929;SDS011;4010;42.698;23.124;2023-05-16T13:20:39;12.77;;;10.10;;
7929;SDS011;4010;42.698;23.124;2023-05-16T13:23:06;11.90;;;10.70;;
7929;SDS011;4010;42.698;23.124;2023-05-16T13:25:33;11.23;;;10.13;;
7929;SDS011;4010;42.698;23.124;2023-05-16T13:27:59;13.40;;;10.50;;
7929;SDS011;4010;42.698;23.124;2023-05-16T13:30:26;12.77;;;10.40;;
7929;SDS011;4010;42.698;23.124;2023-05-16T13:32:56;13.53;;;10.30;;
7929;SDS011;4010;42.698;23.124;2023-05-16T13:35:23;14.20;;;9.03;;
7929;SDS011;4010;42.698;23.124;2023-05-16T13:37:50;12.53;;;10.20;;
7929;SDS011;4010;42.698;23.124;2023-05-16T13:40:17;16.10;;;11.57;;
7929;SDS011;4010;42.698;23.124;2023-05-16T13:42:43;15.93;;;10.87;;
7929;SDS011;4010;42.698;23.124;2023-05-16T13:45:10;17.00;;;15.10;;
7929;SDS011;4010;42.698;23.124;2023-05-16T13:47:37;14.63;;;11.53;;
7929;SDS011;4010;42.698;23.124;2023-05-16T13:50:05;14.13;;;11.27;;
7929;SDS011;4010;42.698;23.124;2023-05-16T13:52:33;16.53;;;12.00;;
7929;SDS011;4010;42.698;23.124;2023-05-16T13:55:00;17.03;;;11.70;;
7929;SDS011;4010;42.698;23.124;2023-05-16T13:57:26;19.77;;;11.30;;
7929;SDS011;4010;42.698;23.124;2023-05-16T13:59:53;17.43;;;11.10;;
7929;SDS011;4010;42.698;23.124;2023-05-16T14:02:20;13.37;;;11.27;;
7929;SDS011;4010;42.698;23.124;2023-05-16T14:04:49;16.87;;;11.57;;
7929;SDS011;4010;42.698;23.124;2023-05-16T14:07:18;13.43;;;12.13;;
7929;SDS011;4010;42.698;23.124;2023-05-16T14:09:44;15.83;;;11.90;;
7929;SDS011;4010;42.698;23.124;2023-05-16T14:12:11;17.30;;;11.70;;
7929;SDS011;4010;42.698;23.124;2023-05-16T14:14:38;17.30;;;12.43;;
7929;SDS011;4010;42.698;23.124;2023-05-16T14:17:04;14.57;;;11.40;;
7929;SDS011;4010;42.698;23.124;2023-05-16T14:19:31;15.73;;;10.73;;
7929;SDS011;4010;42.698;23.124;2023-05-16T14:21:58;16.37;;;9.10;;
7929;SDS011;4010;42.698;23.124;2023-05-16T14:24:26;10.10;;;8.57;;
7929;SDS011;4010;42.698;23.124;2023-05-16T14:26:52;15.93;;;8.73;;
7929;SDS011;4010;42.698;23.124;2023-05-16T14:29:19;14.00;;;8.80;;
7929;SDS011;4010;42.698;23.124;2023-05-16T14:31:46;14.63;;;9.07;;
7929;SDS011;4010;42.698;23.124;2023-05-16T14:34:13;12.87;;;8.37;;
7929;SDS011;4010;42.698;23.124;2023-05-16T14:36:40;13.10;;;8.80;;
7929;SDS011;4010;42.698;23.124;2023-05-16T14:39:07;10.57;;;9.03;;
7929;SDS011;4010;42.698;23.124;2023-05-16T14:41:35;11.63;;;9.33;;
7929;SDS011;4010;42.698;23.124;2023-05-16T14:44:02;14.00;;;9.30;;
7929;SDS011;4010;42.698;23.124;2023-05-16T14:46:29;13.03;;;8.40;;
7929;SDS011;4010;42.698;23.124;2023-05-16T14:48:56;12.70;;;7.57;;
7929;SDS011;4010;42.698;23.124;2023-05-16T14:51:22;16.87;;;9.27;;
7929;SDS011;4010;42.698;23.124;2023-05-16T14:53:49;9.83;;;7.17;;